Time;durP1;ratioP1;P1;durP2;ratioP2;P2;SDS_P1;SDS_P2;PMS_P1;PMS_P2;Temp;Humidity;BMP_temperature;BMP_pressure;BME280_temperature;BME280_humidity;BME280_pressure;Samples;Min_cycle;Max_cycle;Signal;HPM_P1;HPM_P2
2022/06/30 00:02:06;;;;;;;15.88;7.50;;;22.00;99.90;;;;;;5034462;28;20071;-48
2022/06/30 00:04:32;;;;;;;19.27;8.45;;;22.00;99.90;;;;;;5034510;28;20025;-49
2022/06/30 00:06:57;;;;;;;14.32;8.48;;;21.90;99.90;;;;;;5035707;28;20041;-50
2022/06/30 00:09:23;;;;;;;13.70;7.65;;;21.90;99.90;;;;;;5035545;28;20034;-48
2022/06/30 00:11:48;;;;;;;19.88;8.18;;;21.80;99.90;;;;;;5034218;28;20028;-48
2022/06/30 00:14:14;;;;;;;19.08;9.88;;;21.80;99.90;;;;;;5034310;28;20033;-51
2022/06/30 00:16:39;;;;;;;19.48;8.93;;;21.80;99.90;;;;;;5034287;28;20025;-48
2022/06/30 00:19:05;;;;;;;15.57;8.50;;;21.60;99.90;;;;;;5035744;28;20108;-48
2022/06/30 00:21:31;;;;;;;16.95;8.75;;;21.60;99.90;;;;;;5034175;28;20064;-51
2022/06/30 00:23:56;;;;;;;12.27;9.27;;;21.60;99.90;;;;;;5035439;28;20021;-48
2022/06/30 00:26:22;;;;;;;14.15;9.00;;;21.40;99.90;;;;;;5034124;28;20030;-48
2022/06/30 00:28:47;;;;;;;29.15;8.55;;;21.40;99.90;;;;;;5032982;28;20057;-48
2022/06/30 00:31:13;;;;;;;14.68;8.07;;;21.40;99.90;;;;;;5033937;28;20022;-48
2022/06/30 00:33:39;;;;;;;21.33;10.43;;;21.40;99.90;;;;;;5035135;28;20040;-48
2022/06/30 00:36:04;;;;;;;17.48;8.73;;;21.40;99.90;;;;;;5034153;28;20098;-48
2022/06/30 00:38:30;;;;;;;21.38;9.10;;;21.30;99.90;;;;;;5035126;28;20022;-49
2022/06/30 00:40:56;;;;;;;29.75;9.10;;;21.30;99.90;;;;;;5034964;28;20022;-48
2022/06/30 00:43:21;;;;;;;31.75;8.85;;;21.20;99.90;;;;;;5033804;28;20102;-50
2022/06/30 00:45:48;;;;;;;23.83;8.60;;;21.30;99.90;;;;;;5033829;28;20033;-48
2022/06/30 00:48:17;;;;;;;23.52;8.63;;;21.20;99.90;;;;;;5033549;28;20025;-49
2022/06/30 00:50:42;;;;;;;22.00;9.95;;;21.20;99.90;;;;;;5033634;28;20029;-48
2022/06/30 00:53:09;;;;;;;19.52;8.73;;;21.20;99.90;;;;;;5034321;28;20052;-48
2022/06/30 00:55:36;;;;;;;20.63;9.15;;;21.20;99.90;;;;;;5034769;28;20077;-48
2022/06/30 00:58:03;;;;;;;17.88;8.98;;;21.20;99.90;;;;;;5033590;28;20018;-48
2022/06/30 01:00:32;;;;;;;26.30;9.38;;;21.20;99.90;;;;;;5033331;28;20048;-48
2022/06/30 01:02:59;;;;;;;23.02;9.32;;;21.10;99.90;;;;;;5033398;28;20447;-50
2022/06/30 01:05:26;;;;;;;27.73;10.75;;;21.10;99.90;;;;;;5034541;28;20029;-48
2022/06/30 01:07:55;;;;;;;28.38;9.65;;;21.10;99.90;;;;;;5033360;28;20052;-48
2022/06/30 01:13:05;;;;;;;15.70;9.98;;;21.00;99.90;;;;;;5034554;28;20040;-49
2022/06/30 01:15:31;;;;;;;16.95;10.23;;;21.00;99.90;;;;;;5033429;28;20021;-50
2022/06/30 01:17:56;;;;;;;20.85;10.43;;;20.90;99.90;;;;;;5034373;28;20025;-48
2022/06/30 01:20:27;;;;;;;19.63;10.07;;;20.80;99.90;;;;;;5034525;28;20034;-49
2022/06/30 01:22:54;;;;;;;12.23;8.95;;;20.80;99.90;;;;;;5033109;28;20075;-48
2022/06/30 01:25:19;;;;;;;19.17;9.82;;;20.70;99.90;;;;;;5033310;28;20034;-51
2022/06/30 01:27:45;;;;;;;16.15;9.23;;;20.70;99.90;;;;;;5033487;28;20033;-48
2022/06/30 01:30:11;;;;;;;22.38;10.35;;;20.60;99.90;;;;;;5032777;28;20473;-48
2022/06/30 01:32:37;;;;;;;26.77;9.02;;;20.60;99.90;;;;;;5032679;28;20032;-50
2022/06/30 01:35:03;;;;;;;23.00;9.38;;;20.60;99.90;;;;;;5034370;28;20022;-48
2022/06/30 01:37:48;;;;;;;30.05;10.40;;;20.50;99.90;;;;;;5032823;28;20017;-49
2022/06/30 01:40:14;;;;;;;28.17;10.20;;;20.40;99.90;;;;;;5032415;28;20022;-53
2022/06/30 01:42:39;;;;;;;36.83;10.32;;;20.40;99.90;;;;;;5032898;28;20059;-53
2022/06/30 01:45:06;;;;;;;40.40;11.52;;;20.30;99.90;;;;;;5032574;28;20068;-50
2022/06/30 01:47:32;;;;;;;34.72;11.10;;;20.20;99.90;;;;;;5033807;28;20029;-48
2022/06/30 01:49:57;;;;;;;39.75;10.02;;;20.20;99.90;;;;;;5033666;28;20565;-51
2022/06/30 01:52:23;;;;;;;46.10;9.55;;;20.20;99.90;;;;;;5032438;28;20148;-53
2022/06/30 01:54:48;;;;;;;24.35;9.57;;;20.20;99.90;;;;;;5032781;28;20020;-55
2022/06/30 01:57:14;;;;;;;35.63;9.02;;;20.20;99.90;;;;;;5033606;28;20049;-55
2022/06/30 01:59:40;;;;;;;20.83;8.85;;;20.20;99.90;;;;;;5032320;28;20021;-52
2022/06/30 02:02:05;;;;;;;22.02;8.43;;;20.40;99.90;;;;;;5032645;28;20026;-53
2022/06/30 02:04:50;;;;;;;30.58;10.07;;;20.50;99.90;;;;;;5032422;28;20076;-53
2022/06/30 02:07:18;;;;;;;19.17;9.60;;;20.60;99.90;;;;;;5033524;28;20025;-51
2022/06/30 02:09:44;;;;;;;19.33;8.82;;;20.50;99.90;;;;;;5033721;28;20033;-55
2022/06/30 02:14:53;;;;;;;20.85;10.40;;;20.40;99.90;;;;;;5034005;28;20423;-50
2022/06/30 02:17:19;;;;;;;22.85;10.48;;;20.20;99.90;;;;;;5032403;28;20021;-53
2022/06/30 02:19:45;;;;;;;20.27;8.60;;;20.20;99.90;;;;;;5032067;28;20025;-52
2022/06/30 02:22:11;;;;;;;21.33;9.27;;;20.30;99.90;;;;;;5032216;28;20140;-52
2022/06/30 02:24:36;;;;;;;21.40;8.98;;;20.30;99.90;;;;;;5032100;28;20031;-55
2022/06/30 02:27:02;;;;;;;29.15;11.52;;;20.40;99.90;;;;;;5033085;28;20029;-50
2022/06/30 02:29:28;;;;;;;25.85;10.68;;;20.20;99.90;;;;;;5033437;28;20025;-52
2022/06/30 02:31:54;;;;;;;19.92;11.57;;;20.30;99.90;;;;;;5031815;28;20025;-52
2022/06/30 02:34:19;;;;;;;15.75;9.52;;;20.20;99.90;;;;;;5033368;28;20056;-54
2022/06/30 02:36:45;;;;;;;20.00;10.68;;;20.10;99.90;;;;;;5031814;28;20032;-49
2022/06/30 02:39:11;;;;;;;32.25;11.95;;;20.00;99.90;;;;;;5031877;28;20022;-53
2022/06/30 02:41:36;;;;;;;30.98;11.77;;;19.90;99.90;;;;;;5033277;28;20476;-54
2022/06/30 02:44:02;;;;;;;33.42;11.25;;;19.80;99.90;;;;;;5032872;28;20029;-53
2022/06/30 02:46:28;;;;;;;20.95;10.50;;;19.70;99.90;;;;;;5031766;28;20099;-54
2022/06/30 02:48:54;;;;;;;26.75;11.45;;;19.70;99.90;;;;;;5031778;28;20025;-51
2022/06/30 02:51:19;;;;;;;27.80;11.63;;;19.80;99.90;;;;;;5032910;28;20033;-52
2022/06/30 02:53:45;;;;;;;30.13;9.90;;;19.70;99.90;;;;;;5036048;28;20079;-52
2022/06/30 02:56:11;;;;;;;28.52;9.90;;;19.80;99.90;;;;;;5035792;28;20028;-51
2022/06/30 02:58:38;;;;;;;33.13;11.10;;;19.80;99.90;;;;;;5035828;28;20043;-50
2022/06/30 03:01:03;;;;;;;26.60;11.35;;;19.80;99.90;;;;;;5035784;28;20121;-48
2022/06/30 03:03:29;;;;;;;28.48;11.88;;;19.80;99.90;;;;;;5036903;28;20440;-49
2022/06/30 03:05:55;;;;;;;26.58;12.00;;;19.70;99.90;;;;;;5035577;28;20100;-48
2022/06/30 03:08:20;;;;;;;19.05;10.73;;;19.60;99.90;;;;;;5035589;28;20029;-51
2022/06/30 03:10:46;;;;;;;23.85;13.43;;;19.60;99.90;;;;;;5036640;28;20029;-49
2022/06/30 03:13:12;;;;;;;18.00;10.68;;;19.50;99.90;;;;;;5036604;28;20033;-48
2022/06/30 03:15:37;;;;;;;22.33;11.18;;;19.50;99.90;;;;;;5036319;28;20028;-50
2022/06/30 03:18:03;;;;;;;34.30;10.95;;;19.50;99.90;;;;;;5035510;28;20076;-50
2022/06/30 03:20:29;;;;;;;28.38;11.65;;;19.30;99.90;;;;;;5035181;28;20037;-49
2022/06/30 03:22:54;;;;;;;21.83;11.18;;;19.20;99.90;;;;;;5036597;28;20025;-49
2022/06/30 03:25:20;;;;;;;30.10;12.00;;;19.20;99.90;;;;;;5035594;28;20083;-48
2022/06/30 03:27:46;;;;;;;19.80;11.00;;;19.10;99.90;;;;;;5035545;28;20034;-51
2022/06/30 03:30:11;;;;;;;26.13;11.73;;;19.20;99.90;;;;;;5035890;28;20099;-49
2022/06/30 03:32:37;;;;;;;20.92;10.20;;;19.20;99.90;;;;;;5035062;28;20025;-49
2022/06/30 03:35:04;;;;;;;30.02;10.43;;;19.20;99.90;;;;;;5035090;28;20468;-48
2022/06/30 03:37:30;;;;;;;38.33;11.55;;;19.20;99.90;;;;;;5035832;28;20104;-48
2022/06/30 03:39:56;;;;;;;32.83;11.38;;;19.20;99.90;;;;;;5034908;28;20117;-50
2022/06/30 03:42:21;;;;;;;20.92;10.05;;;19.10;99.90;;;;;;5036316;28;20029;-50
2022/06/30 03:44:47;;;;;;;23.38;10.60;;;19.20;99.90;;;;;;5036258;28;20029;-50
2022/06/30 03:47:13;;;;;;;31.33;11.73;;;19.10;99.90;;;;;;5035498;28;20563;-49
2022/06/30 03:49:38;;;;;;;30.52;11.18;;;19.20;99.90;;;;;;5035187;28;20030;-49
2022/06/30 03:52:04;;;;;;;34.50;12.00;;;19.20;99.90;;;;;;5034546;28;20117;-48
2022/06/30 03:54:30;;;;;;;26.33;11.77;;;19.20;99.90;;;;;;5035096;28;20156;-49
2022/06/30 03:56:55;;;;;;;33.47;12.05;;;19.20;99.90;;;;;;5035925;28;20028;-48
2022/06/30 03:59:21;;;;;;;26.60;10.52;;;19.30;99.90;;;;;;5036095;28;20048;-48
2022/06/30 04:01:47;;;;;;;21.98;11.23;;;19.30;99.90;;;;;;5034534;28;20025;-48
2022/06/30 04:04:12;;;;;;;26.65;10.85;;;19.40;99.90;;;;;;5034914;28;20018;-49
2022/06/30 04:06:38;;;;;;;26.77;10.32;;;19.50;99.90;;;;;;5035865;28;20081;-48
2022/06/30 04:09:04;;;;;;;17.20;9.05;;;19.70;99.90;;;;;;5034450;28;20033;-49
2022/06/30 04:11:29;;;;;;;25.52;10.07;;;19.80;99.90;;;;;;5034381;28;20026;-48
2022/06/30 04:13:55;;;;;;;33.78;10.57;;;20.10;99.90;;;;;;5034445;28;20033;-49
2022/06/30 04:16:20;;;;;;;28.48;10.70;;;20.20;99.90;;;;;;5034382;28;20018;-50
2022/06/30 04:18:46;;;;;;;20.55;10.48;;;20.40;99.90;;;;;;5034652;28;20036;-50
2022/06/30 04:21:15;;;;;;;28.83;11.13;;;20.60;99.90;;;;;;5034282;28;20032;-49
2022/06/30 04:23:41;;;;;;;23.13;9.75;;;20.80;99.90;;;;;;5035587;28;20025;-49
2022/06/30 04:26:06;;;;;;;28.40;11.38;;;20.90;99.90;;;;;;5035764;28;20036;-48
2022/06/30 04:28:32;;;;;;;22.63;10.20;;;21.20;99.90;;;;;;5035910;28;20032;-49
2022/06/30 04:33:42;;;;;;;19.83;9.60;;;21.60;99.90;;;;;;5035615;28;20031;-49
2022/06/30 04:36:07;;;;;;;25.92;9.85;;;21.90;99.90;;;;;;5034375;28;20021;-49
2022/06/30 04:38:33;;;;;;;20.02;9.88;;;22.10;99.90;;;;;;5035813;28;20375;-50
2022/06/30 04:43:42;;;;;;;18.05;9.65;;;22.20;99.90;;;;;;5035692;28;20036;-50
2022/06/30 04:46:08;;;;;;;24.02;11.15;;;22.40;99.90;;;;;;5035592;28;20026;-51
2022/06/30 04:48:34;;;;;;;23.02;10.35;;;22.50;99.90;;;;;;5035279;28;20092;-48
2022/06/30 04:50:59;;;;;;;20.60;10.05;;;22.50;99.90;;;;;;5035265;28;20029;-48
2022/06/30 04:53:25;;;;;;;23.13;11.18;;;22.50;99.90;;;;;;5034651;28;20071;-49
2022/06/30 04:55:51;;;;;;;19.92;9.18;;;22.50;99.90;;;;;;5035246;28;20144;-50
2022/06/30 04:58:16;;;;;;;15.05;9.43;;;22.60;99.90;;;;;;5035372;28;20041;-50
2022/06/30 05:00:42;;;;;;;18.23;10.43;;;22.80;99.90;;;;;;5035500;28;20495;-49
2022/06/30 05:03:07;;;;;;;18.65;10.65;;;23.20;99.90;;;;;;5034669;28;20116;-48
2022/06/30 05:05:33;;;;;;;22.35;10.52;;;23.40;99.90;;;;;;5033798;28;20083;-48
2022/06/30 05:07:59;;;;;;;19.20;10.05;;;23.70;99.90;;;;;;5034020;28;20021;-49
2022/06/30 05:10:24;;;;;;;19.30;9.65;;;24.10;99.90;;;;;;5034031;28;20168;-51
2022/06/30 05:12:50;;;;;;;16.45;10.48;;;24.40;99.90;;;;;;5033714;28;20033;-52
2022/06/30 05:15:16;;;;;;;13.23;8.48;;;24.80;99.90;;;;;;5033296;28;20032;-51
2022/06/30 05:17:41;;;;;;;20.08;8.88;;;25.20;99.90;;;;;;5033801;28;20021;-50
2022/06/30 05:20:07;;;;;;;15.25;8.52;;;25.40;99.90;;;;;;5033320;28;20028;-52
2022/06/30 05:22:33;;;;;;;16.65;9.63;;;25.60;99.90;;;;;;5034627;28;20520;-48
2022/06/30 05:27:47;;;;;;;17.48;10.15;;;26.30;99.90;;;;;;5034576;28;20036;-48
2022/06/30 05:30:14;;;;;;;15.23;9.30;;;26.70;99.90;;;;;;5033957;28;20021;-48
2022/06/30 05:32:40;;;;;;;13.45;8.55;;;27.10;99.90;;;;;;5033150;28;20061;-49
2022/06/30 05:35:06;;;;;;;14.23;10.18;;;27.50;99.90;;;;;;5033367;28;20057;-49
2022/06/30 05:37:32;;;;;;;22.95;10.98;;;27.50;99.90;;;;;;5034337;28;20026;-49
2022/06/30 05:39:57;;;;;;;21.15;11.02;;;27.70;99.90;;;;;;5032989;28;20029;-49
2022/06/30 05:42:23;;;;;;;14.60;10.27;;;27.80;99.90;;;;;;5033639;28;20025;-49
2022/06/30 05:44:49;;;;;;;12.52;9.68;;;28.10;99.90;;;;;;5034218;28;20484;-49
2022/06/30 05:47:14;;;;;;;15.38;9.88;;;28.40;99.90;;;;;;5034156;28;20056;-50
2022/06/30 05:49:40;;;;;;;11.90;10.10;;;28.80;99.90;;;;;;5034093;28;20057;-49
2022/06/30 05:52:05;;;;;;;11.20;8.95;;;29.20;99.90;;;;;;5033050;28;20419;-52
2022/06/30 05:54:31;;;;;;;17.02;9.50;;;29.60;99.90;;;;;;5032833;28;20017;-49
2022/06/30 05:56:57;;;;;;;10.93;8.90;;;30.10;99.90;;;;;;5032771;28;20464;-50
2022/06/30 05:59:23;;;;;;;11.80;8.32;;;30.50;99.90;;;;;;5033080;28;20025;-50
2022/06/30 06:01:48;;;;;;;13.93;8.60;;;30.80;99.90;;;;;;5032704;28;20018;-55
2022/06/30 06:04:14;;;;;;;15.30;9.68;;;31.10;99.90;;;;;;5032677;28;20025;-49
2022/06/30 06:06:39;;;;;;;15.07;9.20;;;31.40;99.90;;;;;;5032611;28;20025;-49
2022/06/30 06:09:05;;;;;;;12.07;9.20;;;31.80;99.90;;;;;;5032596;28;20029;-49
2022/06/30 06:11:32;;;;;;;10.02;8.55;;;32.10;99.90;;;;;;5032485;28;20032;-49
2022/06/30 06:13:58;;;;;;;13.02;9.65;;;32.40;99.90;;;;;;5033639;28;20080;-49
2022/06/30 06:16:24;;;;;;;14.20;10.38;;;32.70;99.90;;;;;;5033222;28;20025;-49
2022/06/30 06:18:50;;;;;;;12.77;9.95;;;32.70;99.90;;;;;;5032469;28;20071;-49
2022/06/30 06:21:16;;;;;;;11.10;8.98;;;33.00;99.90;;;;;;5033530;28;20021;-49
2022/06/30 06:23:41;;;;;;;10.52;9.02;;;33.40;99.90;;;;;;5032312;28;20033;-49
2022/06/30 06:26:07;;;;;;;12.48;9.35;;;33.60;99.90;;;;;;5032012;28;20017;-49
2022/06/30 06:31:17;;;;;;;15.20;11.48;;;34.10;99.90;;;;;;5033753;28;20087;-48
2022/06/30 06:33:44;;;;;;;13.95;9.60;;;34.10;99.90;;;;;;5032265;28;20025;-48
2022/06/30 06:36:10;;;;;;;12.50;9.20;;;33.70;99.90;;;;;;5033128;28;20021;-51
2022/06/30 06:38:35;;;;;;;11.65;9.07;;;33.70;99.90;;;;;;5033742;28;20032;-48
2022/06/30 06:41:02;;;;;;;10.35;9.35;;;34.10;99.90;;;;;;5032036;28;20116;-48
2022/06/30 06:43:28;;;;;;;11.57;9.10;;;34.50;99.90;;;;;;5032092;28;20082;-47
2022/06/30 06:45:53;;;;;;;12.80;9.98;;;34.60;99.90;;;;;;5033588;28;20022;-47
2022/06/30 06:48:19;;;;;;;9.57;8.52;;;34.10;99.90;;;;;;5031880;28;20025;-47
2022/06/30 06:50:44;;;;;;;9.10;8.20;;;34.60;99.90;;;;;;5033476;28;20055;-48
2022/06/30 06:53:10;;;;;;;11.45;8.70;;;35.40;99.90;;;;;;5031981;28;20032;-47
2022/06/30 06:55:36;;;;;;;17.25;9.40;;;35.60;99.90;;;;;;5031984;28;20057;-49
2022/06/30 06:58:02;;;;;;;8.63;7.35;;;36.10;99.90;;;;;;5032219;28;20029;-47
2022/06/30 07:00:27;;;;;;;10.80;9.68;;;36.40;99.90;;;;;;5033156;28;20022;-47
2022/06/30 07:02:53;;;;;;;12.50;10.57;;;36.10;99.30;;;;;;5033203;28;20032;-48
2022/06/30 07:05:18;;;;;;;11.13;8.85;;;35.60;98.90;;;;;;5031865;28;20021;-48
2022/06/30 07:07:44;;;;;;;9.80;8.80;;;35.60;99.80;;;;;;5033105;28;20358;-48
2022/06/30 07:10:10;;;;;;;11.70;7.75;;;36.20;98.80;;;;;;5031970;28;20056;-47
2022/06/30 07:12:36;;;;;;;8.75;7.75;;;36.90;97.90;;;;;;5033004;28;20029;-47
2022/06/30 07:15:02;;;;;;;10.18;7.78;;;37.90;96.50;;;;;;5031878;28;20028;-47
2022/06/30 07:17:27;;;;;;;9.50;7.50;;;37.90;95.90;;;;;;5032966;28;20022;-47
2022/06/30 07:19:53;;;;;;;10.68;8.55;;;38.60;93.70;;;;;;5032600;28;20032;-48
2022/06/30 07:22:19;;;;;;;10.02;9.02;;;39.30;92.70;;;;;;5033272;28;20021;-47
2022/06/30 07:24:45;;;;;;;12.18;9.70;;;39.70;92.50;;;;;;5032941;28;20026;-47
2022/06/30 07:27:10;;;;;;;7.70;7.00;;;39.40;91.70;;;;;;5031746;28;20026;-47
2022/06/30 07:29:36;;;;;;;9.07;6.93;;;38.70;92.30;;;;;;5031688;28;20036;-47
2022/06/30 07:32:02;;;;;;;10.23;8.82;;;39.00;92.20;;;;;;5031551;28;20036;-50
2022/06/30 07:34:27;;;;;;;7.60;6.90;;;38.70;90.90;;;;;;5032070;28;20099;-47
2022/06/30 07:36:53;;;;;;;8.68;7.82;;;39.50;91.30;;;;;;5031617;28;20420;-47
2022/06/30 07:39:19;;;;;;;9.98;7.80;;;40.60;89.30;;;;;;5034689;28;20076;-49
2022/06/30 07:41:45;;;;;;;8.45;7.57;;;40.70;84.90;;;;;;5035294;28;20025;-48
2022/06/30 07:44:10;;;;;;;9.73;8.70;;;40.80;84.40;;;;;;5035584;28;20033;-47
2022/06/30 07:46:36;;;;;;;8.30;7.60;;;41.20;82.60;;;;;;5035548;28;20025;-47
2022/06/30 07:49:02;;;;;;;7.28;6.68;;;40.70;82.90;;;;;;5036379;28;20048;-47
2022/06/30 07:51:28;;;;;;;9.38;6.85;;;40.60;85.00;;;;;;5035310;28;20438;-48
2022/06/30 07:53:53;;;;;;;7.88;6.65;;;40.40;82.90;;;;;;5035928;28;20029;-47
2022/06/30 07:56:19;;;;;;;8.25;6.85;;;39.60;83.50;;;;;;5036323;28;20017;-47
2022/06/30 07:58:45;;;;;;;9.38;8.07;;;40.10;81.60;;;;;;5035895;28;20074;-47
2022/06/30 08:01:10;;;;;;;9.95;7.90;;;39.50;81.70;;;;;;5036337;28;20018;-49
2022/06/30 08:03:36;;;;;;;9.15;7.32;;;39.20;82.70;;;;;;5036167;28;20025;-47
2022/06/30 08:06:03;;;;;;;14.00;7.15;;;38.80;83.00;;;;;;5036434;28;20029;-47
2022/06/30 08:08:29;;;;;;;8.02;6.57;;;39.30;83.80;;;;;;5034641;28;20075;-50
2022/06/30 08:10:55;;;;;;;8.02;7.32;;;40.10;80.20;;;;;;5035991;28;20065;-48
2022/06/30 08:13:20;;;;;;;8.35;6.72;;;39.90;80.40;;;;;;5034895;28;20112;-47
2022/06/30 08:15:46;;;;;;;6.85;6.15;;;39.80;82.20;;;;;;5034632;28;20037;-47
2022/06/30 08:18:18;;;;;;;9.93;6.40;;;41.10;79.00;;;;;;5036175;28;20033;-47
2022/06/30 08:20:43;;;;;;;10.57;7.18;;;42.00;79.20;;;;;;5036001;28;20024;-47
2022/06/30 08:23:09;;;;;;;7.88;6.60;;;42.80;75.70;;;;;;5034559;28;20116;-47
2022/06/30 08:25:35;;;;;;;7.00;5.97;;;43.60;73.80;;;;;;5034506;28;20107;-50
2022/06/30 08:28:00;;;;;;;6.85;6.13;;;43.70;72.40;;;;;;5035730;28;20025;-48
2022/06/30 08:30:26;;;;;;;7.75;6.88;;;44.30;71.60;;;;;;5034266;28;20128;-48
2022/06/30 08:32:52;;;;;;;7.13;6.43;;;42.10;70.90;;;;;;5034312;28;20029;-49
2022/06/30 08:35:17;;;;;;;9.93;6.38;;;42.60;73.00;;;;;;5034608;28;20075;-50
2022/06/30 08:37:43;;;;;;;9.25;6.10;;;42.60;71.50;;;;;;5034318;28;20025;-47
2022/06/30 08:42:55;;;;;;;6.97;6.28;;;44.70;68.40;;;;;;5035994;28;20037;-48
2022/06/30 08:45:21;;;;;;;7.00;6.28;;;45.40;67.60;;;;;;5035448;28;20029;-51
2022/06/30 08:47:48;;;;;;;8.38;7.22;;;44.50;65.80;;;;;;5034006;28;20032;-47
2022/06/30 08:50:16;;;;;;;7.65;6.90;;;43.00;66.60;;;;;;5033428;28;20025;-48
2022/06/30 08:53:02;;;;;;;6.90;6.28;;;42.60;67.90;;;;;;5033946;28;20034;-48
2022/06/30 08:55:30;;;;;;;9.57;7.30;;;43.70;68.10;;;;;;5033991;28;20067;-49
2022/06/30 08:58:03;;;;;;;8.25;6.78;;;43.00;66.80;;;;;;5033808;28;20079;-47
2022/06/30 09:00:29;;;;;;;6.15;5.40;;;42.70;67.90;;;;;;5034981;28;20043;-49
2022/06/30 09:02:55;;;;;;;9.15;5.55;;;43.80;68.60;;;;;;5034058;28;20025;-49
2022/06/30 09:05:21;;;;;;;6.40;5.80;;;44.90;64.60;;;;;;5034838;28;20112;-50
2022/06/30 09:07:46;;;;;;;8.13;5.90;;;45.70;63.10;;;;;;5033941;28;20027;-50
2022/06/30 09:10:12;;;;;;;6.40;5.80;;;46.00;62.50;;;;;;5034676;28;20044;-48
2022/06/30 09:12:37;;;;;;;10.57;6.18;;;46.40;61.80;;;;;;5033603;28;20040;-50
2022/06/30 09:15:04;;;;;;;6.95;6.25;;;46.70;61.30;;;;;;5034747;28;20021;-51
2022/06/30 09:17:30;;;;;;;6.50;5.93;;;46.90;59.90;;;;;;5033476;28;20022;-54
2022/06/30 09:20:10;;;;;;;7.20;6.50;;;47.20;59.40;;;;;;5033341;28;20017;-48
2022/06/30 09:22:40;;;;;;;6.78;5.30;;;46.40;57.20;;;;;;5034729;28;20021;-50
2022/06/30 09:25:09;;;;;;;8.68;5.72;;;44.80;57.30;;;;;;5034652;28;20060;-49
2022/06/30 09:27:38;;;;;;;7.35;5.90;;;43.50;57.90;;;;;;5033332;28;20104;-48
2022/06/30 09:30:21;;;;;;;6.15;5.13;;;42.50;60.60;;;;;;5033709;28;20029;-48
2022/06/30 09:32:55;;;;;;;6.68;5.90;;;43.20;62.10;;;;;;5034435;28;20037;-49
2022/06/30 09:35:26;;;;;;;5.75;5.25;;;43.50;60.40;;;;;;5034711;28;20021;-49
2022/06/30 09:38:04;;;;;;;6.57;5.05;;;44.90;61.00;;;;;;5034416;28;20068;-49
2022/06/30 09:41:00;;;;;;;6.72;5.30;;;45.80;60.40;;;;;;5033017;28;20052;-48
2022/06/30 09:43:37;;;;;;;6.38;5.65;;;46.20;60.80;;;;;;5034219;28;20392;-48
2022/06/30 09:46:03;;;;;;;7.28;5.70;;;47.20;58.10;;;;;;5032841;28;20053;-48
2022/06/30 09:48:31;;;;;;;5.70;5.20;;;46.90;57.10;;;;;;5032875;28;20029;-48
2022/06/30 09:51:03;;;;;;;5.97;5.47;;;46.60;56.40;;;;;;5032805;28;20112;-49
2022/06/30 09:53:29;;;;;;;5.60;5.10;;;45.90;56.70;;;;;;5033624;28;20026;-47
2022/06/30 09:55:56;;;;;;;7.15;4.80;;;45.40;56.50;;;;;;5032766;28;20499;-49
2022/06/30 09:58:30;;;;;;;5.05;4.65;;;44.90;56.50;;;;;;5032788;28;20026;-48
2022/06/30 10:00:58;;;;;;;6.20;4.80;;;45.00;56.50;;;;;;5032481;28;20025;-47
2022/06/30 10:03:23;;;;;;;4.72;4.43;;;44.10;55.90;;;;;;5033186;28;20029;-47
2022/06/30 10:05:50;;;;;;;7.43;5.70;;;44.30;56.90;;;;;;5032698;28;20033;-47
2022/06/30 10:08:18;;;;;;;7.00;5.10;;;44.80;56.40;;;;;;5032601;28;20488;-48
2022/06/30 10:10:44;;;;;;;5.93;4.90;;;43.90;56.40;;;;;;5032348;28;20037;-48
2022/06/30 10:13:15;;;;;;;4.45;4.05;;;42.00;57.30;;;;;;5032725;28;20064;-47
2022/06/30 10:15:45;;;;;;;6.28;4.85;;;39.70;57.90;;;;;;5032455;28;20477;-47
2022/06/30 10:18:11;;;;;;;6.18;5.38;;;38.20;61.40;;;;;;5033144;28;20017;-47
2022/06/30 10:20:38;;;;;;;6.22;4.85;;;37.50;61.90;;;;;;5033429;28;20492;-49
2022/06/30 10:23:10;;;;;;;5.70;3.88;;;38.20;63.30;;;;;;5033557;28;20026;-47
2022/06/30 10:25:36;;;;;;;9.82;4.18;;;40.10;60.20;;;;;;5033126;28;20064;-54
2022/06/30 10:28:03;;;;;;;7.88;4.68;;;41.10;57.70;;;;;;5032359;28;20067;-47
2022/06/30 10:30:42;;;;;;;5.18;3.83;;;41.70;57.60;;;;;;5032170;28;20030;-50
2022/06/30 10:33:22;;;;;;;4.78;4.20;;;42.00;58.40;;;;;;5032413;28;20396;-52
2022/06/30 10:35:56;;;;;;;5.63;3.97;;;42.10;57.30;;;;;;5033008;28;20116;-48
2022/06/30 10:38:50;;;;;;;5.90;4.43;;;41.90;57.70;;;;;;5033667;28;20353;-48
2022/06/30 10:41:18;;;;;;;6.43;4.30;;;41.40;58.80;;;;;;5032049;28;20171;-52
2022/06/30 10:44:05;;;;;;;6.22;4.88;;;40.50;58.80;;;;;;5032162;28;20029;-55
2022/06/30 10:46:48;;;;;;;6.13;4.25;;;39.30;61.20;;;;;;5032029;28;20059;-50
2022/06/30 10:49:15;;;;;;;6.78;4.50;;;38.50;61.00;;;;;;5032279;28;20033;-55
2022/06/30 10:51:41;;;;;;;4.32;3.75;;;37.90;61.60;;;;;;5032586;28;20044;-48
2022/06/30 10:54:08;;;;;;;4.85;4.00;;;37.60;62.40;;;;;;5032682;28;20490;-54
2022/06/30 10:56:49;;;;;;;4.38;3.97;;;37.40;63.10;;;;;;5032050;28;20032;-51
2022/06/30 11:02:39;;;;;;;5.30;3.78;;;37.40;61.20;;;;;;5033518;28;20028;-48
2022/06/30 11:05:23;;;;;;;4.57;3.70;;;36.70;61.90;;;;;;5033073;28;20439;-47
2022/06/30 11:07:49;;;;;;;8.02;3.95;;;36.70;63.30;;;;;;5031914;28;20369;-47
2022/06/30 11:10:19;;;;;;;4.95;3.80;;;36.40;64.10;;;;;;5031887;28;20033;-47
2022/06/30 11:12:47;;;;;;;3.95;3.53;;;36.20;65.40;;;;;;5032788;28;20026;-49
2022/06/30 11:15:14;;;;;;;4.40;4.00;;;36.10;65.40;;;;;;5036982;28;20071;-47
2022/06/30 11:17:40;;;;;;;4.97;3.92;;;36.00;65.10;;;;;;5035740;28;20021;-47
2022/06/30 11:20:12;;;;;;;3.92;3.53;;;35.80;66.10;;;;;;5035722;28;20075;-47
2022/06/30 11:22:39;;;;;;;7.78;4.00;;;35.90;65.60;;;;;;5035672;28;20049;-48
2022/06/30 11:25:08;;;;;;;5.03;3.72;;;35.70;66.40;;;;;;5036260;28;20026;-47
2022/06/30 11:27:36;;;;;;;5.55;3.58;;;35.70;65.10;;;;;;5035556;28;20025;-47
2022/06/30 11:30:10;;;;;;;4.57;3.70;;;35.60;64.70;;;;;;5036807;28;20071;-51
2022/06/30 11:32:37;;;;;;;6.90;3.70;;;35.60;65.40;;;;;;5035759;28;20025;-49
2022/06/30 11:35:04;;;;;;;4.65;3.35;;;35.50;65.10;;;;;;5035813;28;20021;-47
2022/06/30 11:37:33;;;;;;;6.15;3.90;;;35.30;66.30;;;;;;5035244;28;20032;-47
2022/06/30 11:40:01;;;;;;;3.88;3.58;;;35.20;66.80;;;;;;5035334;28;20017;-48
2022/06/30 11:42:27;;;;;;;4.45;3.83;;;35.10;66.10;;;;;;5036490;28;20456;-48
2022/06/30 11:44:52;;;;;;;4.10;3.70;;;34.90;66.00;;;;;;5037358;28;20095;-48
2022/06/30 11:47:20;;;;;;;6.15;4.18;;;34.90;65.80;;;;;;5036138;28;20057;-47
2022/06/30 11:50:00;;;;;;;3.92;3.53;;;34.70;66.70;;;;;;5036369;28;20045;-50
2022/06/30 11:52:29;;;;;;;7.45;3.92;;;34.60;66.40;;;;;;5035145;28;20086;-48
2022/06/30 11:55:03;;;;;;;6.03;4.05;;;34.50;66.50;;;;;;5035025;28;20033;-46
2022/06/30 11:57:34;;;;;;;5.63;4.25;;;34.50;67.40;;;;;;5036279;28;20152;-46
2022/06/30 12:00:09;;;;;;;11.27;4.80;;;34.50;67.30;;;;;;5034964;28;20018;-50
2022/06/30 12:02:50;;;;;;;6.38;3.85;;;33.70;68.20;;;;;;5036196;28;20108;-49
2022/06/30 12:05:18;;;;;;;5.57;3.63;;;33.30;68.00;;;;;;5036246;28;20025;-52
2022/06/30 12:07:46;;;;;;;5.65;3.70;;;33.20;66.70;;;;;;5036399;28;20104;-49
2022/06/30 12:10:15;;;;;;;4.93;3.50;;;33.10;66.60;;;;;;5036502;28;20029;-47
2022/06/30 12:12:42;;;;;;;4.90;3.88;;;33.20;67.00;;;;;;5035900;28;20030;-48
2022/06/30 12:15:14;;;;;;;6.32;3.30;;;33.30;66.60;;;;;;5034708;28;20099;-49
2022/06/30 12:17:44;;;;;;;7.97;3.38;;;33.30;66.30;;;;;;5036140;28;20021;-47
2022/06/30 12:20:12;;;;;;;5.25;3.58;;;33.30;67.00;;;;;;5035751;28;20049;-52
2022/06/30 12:22:46;;;;;;;7.00;3.65;;;33.30;65.80;;;;;;5036075;28;20033;-52
2022/06/30 12:25:13;;;;;;;11.82;3.92;;;33.00;66.80;;;;;;5034528;28;20021;-55
2022/06/30 12:27:47;;;;;;;4.30;3.50;;;32.90;69.90;;;;;;5034394;28;20124;-53
2022/06/30 12:30:23;;;;;;;4.82;3.38;;;32.80;69.10;;;;;;5035590;28;20472;-51
2022/06/30 12:32:54;;;;;;;5.90;3.78;;;32.80;69.60;;;;;;5034360;28;20025;-48
2022/06/30 12:35:25;;;;;;;6.90;3.50;;;32.80;69.30;;;;;;5034341;28;20032;-47
2022/06/30 12:37:53;;;;;;;9.27;4.00;;;32.70;69.70;;;;;;5035874;28;20052;-48
2022/06/30 12:40:21;;;;;;;4.43;3.70;;;32.80;70.00;;;;;;5035359;28;20029;-48
2022/06/30 12:42:53;;;;;;;5.28;3.45;;;32.90;69.40;;;;;;5035711;28;20026;-47
2022/06/30 12:45:44;;;;;;;3.63;3.20;;;32.90;71.10;;;;;;5034186;28;20171;-46
2022/06/30 12:48:10;;;;;;;;;;;32.80;65.50;;;;;;5034498;28;20499;-49
2022/06/30 12:50:39;;;;;;;7.05;4.35;;;32.50;69.50;;;;;;5035084;28;19912;-46
2022/06/30 12:53:23;;;;;;;5.32;3.72;;;32.40;67.60;;;;;;5035364;28;20040;-46
2022/06/30 12:56:01;;;;;;;6.53;3.10;;;32.20;67.60;;;;;;5034241;28;20030;-46
2022/06/30 12:58:41;;;;;;;3.95;3.58;;;32.10;70.20;;;;;;5034491;28;20021;-51
2022/06/30 13:01:07;;;;;;;7.07;3.72;;;32.20;70.80;;;;;;5033857;28;20032;-50
2022/06/30 13:03:44;;;;;;;4.78;3.17;;;32.30;69.60;;;;;;5033770;28;20022;-50